sensor_id;sensor_type;location;lat;lon;timestamp;P1;durP1;ratioP1;P2;durP2;ratioP2
50803;SDS011;37205;51.434;6.756;2024-02-23T00:00:07;1.20;;;0.60;;
50803;SDS011;37205;51.434;6.756;2024-02-23T00:02:35;1.60;;;0.60;;
50803;SDS011;37205;51.434;6.756;2024-02-23T00:05:01;1.10;;;0.50;;
50803;SDS011;37205;51.434;6.756;2024-02-23T00:07:27;1.50;;;0.60;;
50803;SDS011;37205;51.434;6.756;2024-02-23T00:09:52;1.38;;;0.60;;
50803;SDS011;37205;51.434;6.756;2024-02-23T00:12:18;2.47;;;0.60;;
50803;SDS011;37205;51.434;6.756;2024-02-23T00:14:43;1.55;;;0.65;;
50803;SDS011;37205;51.434;6.756;2024-02-23T00:17:09;1.35;;;0.60;;
50803;SDS011;37205;51.434;6.756;2024-02-23T00:19:35;2.08;;;0.65;;
50803;SDS011;37205;51.434;6.756;2024-02-23T00:22:00;1.75;;;0.88;;
50803;SDS011;37205;51.434;6.756;2024-02-23T00:24:26;2.65;;;1.10;;
50803;SDS011;37205;51.434;6.756;2024-02-23T00:26:51;1.80;;;1.00;;
50803;SDS011;37205;51.434;6.756;2024-02-23T00:29:17;4.43;;;2.40;;
50803;SDS011;37205;51.434;6.756;2024-02-23T00:31:43;7.45;;;3.42;;
50803;SDS011;37205;51.434;6.756;2024-02-23T00:34:11;3.65;;;2.35;;
50803;SDS011;37205;51.434;6.756;2024-02-23T00:36:38;3.78;;;2.20;;
50803;SDS011;37205;51.434;6.756;2024-02-23T00:39:05;9.55;;;5.28;;
50803;SDS011;37205;51.434;6.756;2024-02-23T00:41:32;7.68;;;4.07;;
50803;SDS011;37205;51.434;6.756;2024-02-23T00:44:01;13.40;;;6.40;;
50803;SDS011;37205;51.434;6.756;2024-02-23T00:46:29;21.70;;;9.32;;
50803;SDS011;37205;51.434;6.756;2024-02-23T00:48:55;20.77;;;10.23;;
50803;SDS011;37205;51.434;6.756;2024-02-23T00:51:21;8.95;;;5.50;;
50803;SDS011;37205;51.434;6.756;2024-02-23T00:53:46;5.85;;;3.55;;
50803;SDS011;37205;51.434;6.756;2024-02-23T00:56:12;11.65;;;6.47;;
50803;SDS011;37205;51.434;6.756;2024-02-23T00:58:38;12.70;;;7.15;;
50803;SDS011;37205;51.434;6.756;2024-02-23T01:01:04;10.65;;;6.40;;
50803;SDS011;37205;51.434;6.756;2024-02-23T01:03:29;15.57;;;6.38;;
50803;SDS011;37205;51.434;6.756;2024-02-23T01:05:55;13.88;;;6.55;;
50803;SDS011;37205;51.434;6.756;2024-02-23T01:08:21;15.27;;;8.52;;
50803;SDS011;37205;51.434;6.756;2024-02-23T01:10:46;10.20;;;5.00;;
50803;SDS011;37205;51.434;6.756;2024-02-23T01:13:12;13.10;;;6.15;;
50803;SDS011;37205;51.434;6.756;2024-02-23T01:15:37;21.20;;;9.35;;
50803;SDS011;37205;51.434;6.756;2024-02-23T01:18:03;29.08;;;11.32;;
50803;SDS011;37205;51.434;6.756;2024-02-23T01:20:30;25.45;;;11.23;;
50803;SDS011;37205;51.434;6.756;2024-02-23T01:22:56;23.92;;;12.10;;
50803;SDS011;37205;51.434;6.756;2024-02-23T01:25:21;22.25;;;11.60;;
50803;SDS011;37205;51.434;6.756;2024-02-23T01:27:47;18.85;;;9.70;;
50803;SDS011;37205;51.434;6.756;2024-02-23T01:30:13;12.00;;;5.55;;
50803;SDS011;37205;51.434;6.756;2024-02-23T01:32:39;19.48;;;7.60;;
50803;SDS011;37205;51.434;6.756;2024-02-23T01:35:05;15.63;;;8.20;;
50803;SDS011;37205;51.434;6.756;2024-02-23T01:37:31;13.95;;;7.07;;
50803;SDS011;37205;51.434;6.756;2024-02-23T01:39:57;10.30;;;4.53;;
50803;SDS011;37205;51.434;6.756;2024-02-23T01:42:24;5.45;;;2.70;;
50803;SDS011;37205;51.434;6.756;2024-02-23T01:44:50;4.25;;;1.80;;
50803;SDS011;37205;51.434;6.756;2024-02-23T01:47:16;7.88;;;3.13;;
50803;SDS011;37205;51.434;6.756;2024-02-23T01:49:42;10.77;;;3.40;;
50803;SDS011;37205;51.434;6.756;2024-02-23T01:52:09;3.33;;;1.40;;
50803;SDS011;37205;51.434;6.756;2024-02-23T01:54:35;7.18;;;2.17;;
50803;SDS011;37205;51.434;6.756;2024-02-23T01:57:01;6.80;;;2.08;;
50803;SDS011;37205;51.434;6.756;2024-02-23T01:59:26;4.82;;;2.10;;
50803;SDS011;37205;51.434;6.756;2024-02-23T02:01:52;5.80;;;2.58;;
50803;SDS011;37205;51.434;6.756;2024-02-23T02:04:18;7.80;;;2.67;;
50803;SDS011;37205;51.434;6.756;2024-02-23T02:06:45;5.43;;;1.83;;
50803;SDS011;37205;51.434;6.756;2024-02-23T02:09:11;5.13;;;1.60;;
50803;SDS011;37205;51.434;6.756;2024-02-23T02:11:46;6.00;;;1.98;;
50803;SDS011;37205;51.434;6.756;2024-02-23T02:14:13;5.88;;;1.52;;
50803;SDS011;37205;51.434;6.756;2024-02-23T02:16:39;4.50;;;1.65;;
50803;SDS011;37205;51.434;6.756;2024-02-23T02:19:07;5.15;;;1.10;;
50803;SDS011;37205;51.434;6.756;2024-02-23T02:21:33;6.47;;;1.55;;
50803;SDS011;37205;51.434;6.756;2024-02-23T02:23:59;4.90;;;1.15;;
50803;SDS011;37205;51.434;6.756;2024-02-23T02:26:24;4.13;;;1.30;;
50803;SDS011;37205;51.434;6.756;2024-02-23T02:28:50;6.20;;;1.50;;
50803;SDS011;37205;51.434;6.756;2024-02-23T02:31:15;4.40;;;1.20;;
50803;SDS011;37205;51.434;6.756;2024-02-23T02:33:41;5.88;;;2.10;;
50803;SDS011;37205;51.434;6.756;2024-02-23T02:36:06;5.18;;;1.50;;
50803;SDS011;37205;51.434;6.756;2024-02-23T02:38:32;4.43;;;1.27;;
50803;SDS011;37205;51.434;6.756;2024-02-23T02:41:00;5.38;;;1.33;;
50803;SDS011;37205;51.434;6.756;2024-02-23T02:43:26;4.45;;;1.08;;
50803;SDS011;37205;51.434;6.756;2024-02-23T02:45:52;6.70;;;1.30;;
50803;SDS011;37205;51.434;6.756;2024-02-23T02:48:18;5.88;;;1.92;;
50803;SDS011;37205;51.434;6.756;2024-02-23T02:50:43;7.22;;;1.90;;
50803;SDS011;37205;51.434;6.756;2024-02-23T02:53:09;6.15;;;1.38;;
50803;SDS011;37205;51.434;6.756;2024-02-23T02:55:35;5.47;;;2.00;;
50803;SDS011;37205;51.434;6.756;2024-02-23T02:58:01;4.68;;;1.50;;
50803;SDS011;37205;51.434;6.756;2024-02-23T03:00:27;5.47;;;1.50;;
50803;SDS011;37205;51.434;6.756;2024-02-23T03:02:53;3.80;;;1.17;;
50803;SDS011;37205;51.434;6.756;2024-02-23T03:05:19;6.03;;;1.50;;
50803;SDS011;37205;51.434;6.756;2024-02-23T03:07:44;3.55;;;1.10;;
50803;SDS011;37205;51.434;6.756;2024-02-23T03:10:10;3.55;;;1.55;;
50803;SDS011;37205;51.434;6.756;2024-02-23T03:12:35;6.53;;;1.35;;
50803;SDS011;37205;51.434;6.756;2024-02-23T03:15:01;4.57;;;1.10;;
50803;SDS011;37205;51.434;6.756;2024-02-23T03:17:28;7.30;;;1.60;;
50803;SDS011;37205;51.434;6.756;2024-02-23T03:19:53;6.25;;;1.35;;
50803;SDS011;37205;51.434;6.756;2024-02-23T03:22:19;5.60;;;1.17;;
50803;SDS011;37205;51.434;6.756;2024-02-23T03:24:45;6.63;;;1.63;;
50803;SDS011;37205;51.434;6.756;2024-02-23T03:27:10;3.60;;;0.80;;
50803;SDS011;37205;51.434;6.756;2024-02-23T03:29:38;6.40;;;1.20;;
50803;SDS011;37205;51.434;6.756;2024-02-23T03:32:04;5.07;;;1.10;;
50803;SDS011;37205;51.434;6.756;2024-02-23T03:34:30;4.03;;;1.20;;
50803;SDS011;37205;51.434;6.756;2024-02-23T03:36:56;5.10;;;1.00;;
50803;SDS011;37205;51.434;6.756;2024-02-23T03:39:23;4.93;;;1.10;;
50803;SDS011;37205;51.434;6.756;2024-02-23T03:41:48;5.90;;;1.25;;
50803;SDS011;37205;51.434;6.756;2024-02-23T03:44:14;5.60;;;1.50;;
50803;SDS011;37205;51.434;6.756;2024-02-23T03:46:39;3.75;;;1.20;;
50803;SDS011;37205;51.434;6.756;2024-02-23T03:49:05;3.97;;;0.98;;
50803;SDS011;37205;51.434;6.756;2024-02-23T03:51:30;4.20;;;1.15;;
50803;SDS011;37205;51.434;6.756;2024-02-23T03:53:57;5.20;;;1.20;;
50803;SDS011;37205;51.434;6.756;2024-02-23T03:56:23;3.17;;;0.82;;
50803;SDS011;37205;51.434;6.756;2024-02-23T03:58:49;7.50;;;1.15;;
50803;SDS011;37205;51.434;6.756;2024-02-23T04:01:14;4.85;;;0.90;;
50803;SDS011;37205;51.434;6.756;2024-02-23T04:03:40;4.82;;;1.05;;
50803;SDS011;37205;51.434;6.756;2024-02-23T04:06:05;5.05;;;0.95;;
50803;SDS011;37205;51.434;6.756;2024-02-23T04:08:32;4.13;;;0.90;;
50803;SDS011;37205;51.434;6.756;2024-02-23T04:10:58;3.53;;;1.13;;
50803;SDS011;37205;51.434;6.756;2024-02-23T04:13:23;5.35;;;1.40;;
50803;SDS011;37205;51.434;6.756;2024-02-23T04:15:49;5.10;;;1.10;;
50803;SDS011;37205;51.434;6.756;2024-02-23T04:18:14;5.05;;;0.93;;
50803;SDS011;37205;51.434;6.756;2024-02-23T04:20:40;3.38;;;1.02;;
50803;SDS011;37205;51.434;6.756;2024-02-23T04:23:06;4.32;;;0.90;;
50803;SDS011;37205;51.434;6.756;2024-02-23T04:25:32;5.18;;;0.90;;
50803;SDS011;37205;51.434;6.756;2024-02-23T04:27:57;4.85;;;1.23;;
50803;SDS011;37205;51.434;6.756;2024-02-23T04:30:23;6.45;;;1.00;;
50803;SDS011;37205;51.434;6.756;2024-02-23T04:32:48;6.05;;;1.05;;
50803;SDS011;37205;51.434;6.756;2024-02-23T04:35:14;6.00;;;0.93;;
50803;SDS011;37205;51.434;6.756;2024-02-23T04:37:42;4.57;;;1.00;;
50803;SDS011;37205;51.434;6.756;2024-02-23T04:40:10;6.13;;;1.00;;
50803;SDS011;37205;51.434;6.756;2024-02-23T04:42:36;3.55;;;0.90;;
50803;SDS011;37205;51.434;6.756;2024-02-23T04:45:01;4.32;;;1.10;;
50803;SDS011;37205;51.434;6.756;2024-02-23T04:47:27;6.22;;;1.27;;
50803;SDS011;37205;51.434;6.756;2024-02-23T04:49:52;5.70;;;1.13;;
50803;SDS011;37205;51.434;6.756;2024-02-23T04:52:18;6.47;;;1.20;;
50803;SDS011;37205;51.434;6.756;2024-02-23T04:54:44;4.53;;;1.00;;
50803;SDS011;37205;51.434;6.756;2024-02-23T04:57:09;4.28;;;0.90;;
50803;SDS011;37205;51.434;6.756;2024-02-23T04:59:35;5.82;;;1.30;;
50803;SDS011;37205;51.434;6.756;2024-02-23T05:02:00;5.35;;;1.10;;
50803;SDS011;37205;51.434;6.756;2024-02-23T05:04:26;5.03;;;1.10;;
50803;SDS011;37205;51.434;6.756;2024-02-23T05:06:51;6.05;;;1.13;;
50803;SDS011;37205;51.434;6.756;2024-02-23T05:09:17;7.00;;;1.33;;
50803;SDS011;37205;51.434;6.756;2024-02-23T05:11:43;5.85;;;1.65;;
50803;SDS011;37205;51.434;6.756;2024-02-23T05:14:10;9.95;;;3.08;;
50803;SDS011;37205;51.434;6.756;2024-02-23T05:16:36;11.27;;;4.50;;
50803;SDS011;37205;51.434;6.756;2024-02-23T05:19:02;8.35;;;4.15;;
50803;SDS011;37205;51.434;6.756;2024-02-23T05:21:27;11.63;;;3.80;;
50803;SDS011;37205;51.434;6.756;2024-02-23T05:23:53;9.93;;;3.88;;
50803;SDS011;37205;51.434;6.756;2024-02-23T05:26:18;13.25;;;4.45;;
50803;SDS011;37205;51.434;6.756;2024-02-23T05:28:45;12.82;;;3.33;;
50803;SDS011;37205;51.434;6.756;2024-02-23T05:31:10;12.25;;;3.22;;
50803;SDS011;37205;51.434;6.756;2024-02-23T05:33:36;7.60;;;3.22;;
50803;SDS011;37205;51.434;6.756;2024-02-23T05:36:03;8.30;;;2.90;;
50803;SDS011;37205;51.434;6.756;2024-02-23T05:38:29;12.13;;;4.03;;
50803;SDS011;37205;51.434;6.756;2024-02-23T05:40:55;10.95;;;3.83;;
50803;SDS011;37205;51.434;6.756;2024-02-23T05:43:21;8.70;;;4.00;;
50803;SDS011;37205;51.434;6.756;2024-02-23T05:45:46;7.57;;;3.20;;
50803;SDS011;37205;51.434;6.756;2024-02-23T05:48:12;10.90;;;3.53;;
50803;SDS011;37205;51.434;6.756;2024-02-23T05:50:37;11.70;;;2.55;;
50803;SDS011;37205;51.434;6.756;2024-02-23T05:53:03;7.95;;;2.00;;
50803;SDS011;37205;51.434;6.756;2024-02-23T05:55:29;6.45;;;1.90;;
50803;SDS011;37205;51.434;6.756;2024-02-23T05:57:55;7.47;;;1.35;;
50803;SDS011;37205;51.434;6.756;2024-02-23T06:00:21;5.90;;;1.17;;
50803;SDS011;37205;51.434;6.756;2024-02-23T06:02:47;7.47;;;1.30;;
50803;SDS011;37205;51.434;6.756;2024-02-23T06:05:13;4.95;;;0.98;;
50803;SDS011;37205;51.434;6.756;2024-02-23T06:07:39;5.97;;;1.15;;
50803;SDS011;37205;51.434;6.756;2024-02-23T06:10:05;4.15;;;1.10;;
50803;SDS011;37205;51.434;6.756;2024-02-23T06:12:31;6.47;;;1.23;;
50803;SDS011;37205;51.434;6.756;2024-02-23T06:14:56;4.82;;;1.40;;
50803;SDS011;37205;51.434;6.756;2024-02-23T06:17:23;5.72;;;1.45;;
50803;SDS011;37205;51.434;6.756;2024-02-23T06:19:49;6.25;;;1.48;;
50803;SDS011;37205;51.434;6.756;2024-02-23T06:22:15;3.88;;;1.02;;
50803;SDS011;37205;51.434;6.756;2024-02-23T06:24:45;7.47;;;1.63;;
50803;SDS011;37205;51.434;6.756;2024-02-23T06:27:14;6.40;;;1.77;;
50803;SDS011;37205;51.434;6.756;2024-02-23T06:29:39;7.50;;;1.20;;
50803;SDS011;37205;51.434;6.756;2024-02-23T06:32:05;8.15;;;1.30;;
50803;SDS011;37205;51.434;6.756;2024-02-23T06:34:31;5.45;;;1.30;;
50803;SDS011;37205;51.434;6.756;2024-02-23T06:36:56;5.72;;;1.25;;
50803;SDS011;37205;51.434;6.756;2024-02-23T06:39:22;5.78;;;1.40;;
50803;SDS011;37205;51.434;6.756;2024-02-23T06:41:48;5.38;;;1.35;;
50803;SDS011;37205;51.434;6.756;2024-02-23T06:44:13;6.03;;;1.50;;
50803;SDS011;37205;51.434;6.756;2024-02-23T06:46:39;4.80;;;1.65;;
50803;SDS011;37205;51.434;6.756;2024-02-23T06:49:05;12.20;;;1.77;;
50803;SDS011;37205;51.434;6.756;2024-02-23T06:51:31;6.55;;;1.42;;
50803;SDS011;37205;51.434;6.756;2024-02-23T06:53:56;5.82;;;1.75;;
50803;SDS011;37205;51.434;6.756;2024-02-23T06:56:22;8.07;;;1.85;;
50803;SDS011;37205;51.434;6.756;2024-02-23T06:58:48;7.90;;;2.47;;
50803;SDS011;37205;51.434;6.756;2024-02-23T07:01:14;9.82;;;3.00;;
50803;SDS011;37205;51.434;6.756;2024-02-23T07:03:39;12.60;;;4.10;;
50803;SDS011;37205;51.434;6.756;2024-02-23T07:06:07;11.18;;;3.30;;
50803;SDS011;37205;51.434;6.756;2024-02-23T07:08:35;10.52;;;3.70;;
50803;SDS011;37205;51.434;6.756;2024-02-23T07:11:00;13.35;;;4.03;;
50803;SDS011;37205;51.434;6.756;2024-02-23T07:13:26;8.82;;;2.70;;
50803;SDS011;37205;51.434;6.756;2024-02-23T07:15:51;8.23;;;2.80;;
50803;SDS011;37205;51.434;6.756;2024-02-23T07:18:17;9.93;;;2.70;;
50803;SDS011;37205;51.434;6.756;2024-02-23T07:20:42;9.38;;;3.33;;
50803;SDS011;37205;51.434;6.756;2024-02-23T07:23:08;10.68;;;2.70;;
50803;SDS011;37205;51.434;6.756;2024-02-23T07:25:34;7.90;;;2.75;;
50803;SDS011;37205;51.434;6.756;2024-02-23T07:28:00;7.60;;;2.80;;
50803;SDS011;37205;51.434;6.756;2024-02-23T07:30:25;7.13;;;2.45;;
50803;SDS011;37205;51.434;6.756;2024-02-23T07:32:51;7.93;;;1.88;;
50803;SDS011;37205;51.434;6.756;2024-02-23T07:35:16;6.38;;;2.05;;
50803;SDS011;37205;51.434;6.756;2024-02-23T07:37:42;11.25;;;2.30;;
50803;SDS011;37205;51.434;6.756;2024-02-23T07:40:08;6.70;;;2.10;;
50803;SDS011;37205;51.434;6.756;2024-02-23T07:42:33;8.90;;;2.47;;
50803;SDS011;37205;51.434;6.756;2024-02-23T07:45:03;7.55;;;1.90;;
50803;SDS011;37205;51.434;6.756;2024-02-23T07:47:32;8.40;;;2.03;;
50803;SDS011;37205;51.434;6.756;2024-02-23T07:49:57;5.82;;;1.55;;
50803;SDS011;37205;51.434;6.756;2024-02-23T07:52:23;7.53;;;1.63;;
50803;SDS011;37205;51.434;6.756;2024-02-23T07:54:50;5.93;;;1.50;;
50803;SDS011;37205;51.434;6.756;2024-02-23T07:57:18;6.97;;;1.17;;
50803;SDS011;37205;51.434;6.756;2024-02-23T07:59:44;4.00;;;1.48;;
50803;SDS011;37205;51.434;6.756;2024-02-23T08:02:10;5.85;;;1.30;;
50803;SDS011;37205;51.434;6.756;2024-02-23T08:04:35;4.82;;;1.30;;
50803;SDS011;37205;51.434;6.756;2024-02-23T08:07:01;4.78;;;1.20;;
50803;SDS011;37205;51.434;6.756;2024-02-23T08:09:27;4.60;;;1.10;;
50803;SDS011;37205;51.434;6.756;2024-02-23T08:11:52;5.85;;;1.40;;
50803;SDS011;37205;51.434;6.756;2024-02-23T08:14:18;4.72;;;1.23;;
50803;SDS011;37205;51.434;6.756;2024-02-23T08:16:43;5.28;;;1.33;;
50803;SDS011;37205;51.434;6.756;2024-02-23T08:19:09;8.82;;;1.40;;
50803;SDS011;37205;51.434;6.756;2024-02-23T08:21:34;5.00;;;1.35;;
50803;SDS011;37205;51.434;6.756;2024-02-23T08:24:00;10.70;;;1.90;;
50803;SDS011;37205;51.434;6.756;2024-02-23T08:26:25;5.70;;;1.58;;
50803;SDS011;37205;51.434;6.756;2024-02-23T08:28:51;8.73;;;1.83;;
50803;SDS011;37205;51.434;6.756;2024-02-23T08:31:16;6.47;;;1.73;;
50803;SDS011;37205;51.434;6.756;2024-02-23T08:33:42;8.13;;;2.15;;
50803;SDS011;37205;51.434;6.756;2024-02-23T08:36:07;8.07;;;2.38;;
50803;SDS011;37205;51.434;6.756;2024-02-23T08:38:33;6.18;;;1.85;;
50803;SDS011;37205;51.434;6.756;2024-02-23T08:40:59;10.70;;;1.95;;
50803;SDS011;37205;51.434;6.756;2024-02-23T08:43:24;4.50;;;1.70;;
50803;SDS011;37205;51.434;6.756;2024-02-23T08:45:50;8.00;;;2.08;;
50803;SDS011;37205;51.434;6.756;2024-02-23T08:48:16;7.25;;;2.20;;
50803;SDS011;37205;51.434;6.756;2024-02-23T08:50:41;6.72;;;1.77;;
50803;SDS011;37205;51.434;6.756;2024-02-23T08:53:07;6.57;;;2.05;;
50803;SDS011;37205;51.434;6.756;2024-02-23T08:55:32;6.45;;;1.83;;
50803;SDS011;37205;51.434;6.756;2024-02-23T08:58:00;8.07;;;2.20;;
50803;SDS011;37205;51.434;6.756;2024-02-23T09:00:26;8.23;;;2.25;;
50803;SDS011;37205;51.434;6.756;2024-02-23T09:02:51;8.15;;;1.88;;
50803;SDS011;37205;51.434;6.756;2024-02-23T09:05:17;6.28;;;1.58;;
50803;SDS011;37205;51.434;6.756;2024-02-23T09:07:42;6.72;;;1.83;;
50803;SDS011;37205;51.434;6.756;2024-02-23T09:10:10;6.78;;;2.42;;
50803;SDS011;37205;51.434;6.756;2024-02-23T09:12:36;8.32;;;2.58;;
50803;SDS011;37205;51.434;6.756;2024-02-23T09:15:02;9.60;;;2.50;;
50803;SDS011;37205;51.434;6.756;2024-02-23T09:17:28;7.00;;;2.00;;
50803;SDS011;37205;51.434;6.756;2024-02-23T09:19:53;7.18;;;1.90;;
50803;SDS011;37205;51.434;6.756;2024-02-23T09:22:19;5.13;;;2.33;;
50803;SDS011;37205;51.434;6.756;2024-02-23T09:24:44;6.93;;;1.92;;
50803;SDS011;37205;51.434;6.756;2024-02-23T09:27:10;6.88;;;2.55;;
50803;SDS011;37205;51.434;6.756;2024-02-23T09:29:36;7.93;;;2.10;;
50803;SDS011;37205;51.434;6.756;2024-02-23T09:32:02;5.55;;;1.65;;
50803;SDS011;37205;51.434;6.756;2024-02-23T09:34:27;5.30;;;1.50;;
50803;SDS011;37205;51.434;6.756;2024-02-23T09:36:54;6.93;;;1.30;;
50803;SDS011;37205;51.434;6.756;2024-02-23T09:39:20;6.28;;;1.30;;
50803;SDS011;37205;51.434;6.756;2024-02-23T09:41:46;5.18;;;1.20;;
50803;SDS011;37205;51.434;6.756;2024-02-23T09:44:15;5.75;;;1.40;;
50803;SDS011;37205;51.434;6.756;2024-02-23T09:46:45;7.00;;;2.03;;
50803;SDS011;37205;51.434;6.756;2024-02-23T09:49:11;7.18;;;2.03;;
50803;SDS011;37205;51.434;6.756;2024-02-23T09:51:38;9.30;;;2.45;;
50803;SDS011;37205;51.434;6.756;2024-02-23T09:54:04;5.70;;;1.50;;
50803;SDS011;37205;51.434;6.756;2024-02-23T09:56:30;6.03;;;1.38;;
50803;SDS011;37205;51.434;6.756;2024-02-23T09:58:56;6.53;;;1.77;;
50803;SDS011;37205;51.434;6.756;2024-02-23T10:01:27;5.90;;;1.25;;
50803;SDS011;37205;51.434;6.756;2024-02-23T10:04:02;6.40;;;1.40;;
50803;SDS011;37205;51.434;6.756;2024-02-23T10:06:29;6.53;;;1.70;;
50803;SDS011;37205;51.434;6.756;2024-02-23T10:08:55;5.38;;;1.52;;
50803;SDS011;37205;51.434;6.756;2024-02-23T10:11:21;6.45;;;1.73;;
50803;SDS011;37205;51.434;6.756;2024-02-23T10:13:48;6.25;;;1.48;;
50803;SDS011;37205;51.434;6.756;2024-02-23T10:16:20;3.90;;;1.42;;
50803;SDS011;37205;51.434;6.756;2024-02-23T10:18:47;4.57;;;1.50;;
50803;SDS011;37205;51.434;6.756;2024-02-23T10:21:16;5.30;;;1.00;;
50803;SDS011;37205;51.434;6.756;2024-02-23T10:23:42;6.85;;;1.10;;
50803;SDS011;37205;51.434;6.756;2024-02-23T10:26:09;5.20;;;1.20;;
50803;SDS011;37205;51.434;6.756;2024-02-23T10:28:38;4.45;;;1.45;;
50803;SDS011;37205;51.434;6.756;2024-02-23T10:31:06;6.25;;;1.75;;
50803;SDS011;37205;51.434;6.756;2024-02-23T10:33:32;6.75;;;1.83;;
50803;SDS011;37205;51.434;6.756;2024-02-23T10:35:59;6.47;;;1.95;;
50803;SDS011;37205;51.434;6.756;2024-02-23T10:38:26;6.93;;;1.80;;
50803;SDS011;37205;51.434;6.756;2024-02-23T10:40:54;8.55;;;1.67;;
50803;SDS011;37205;51.434;6.756;2024-02-23T10:43:21;6.75;;;1.60;;
50803;SDS011;37205;51.434;6.756;2024-02-23T10:45:53;5.93;;;1.50;;
50803;SDS011;37205;51.434;6.756;2024-02-23T10:48:20;8.40;;;1.60;;
50803;SDS011;37205;51.434;6.756;2024-02-23T10:50:46;8.98;;;2.05;;
50803;SDS011;37205;51.434;6.756;2024-02-23T10:53:14;5.85;;;1.42;;
50803;SDS011;37205;51.434;6.756;2024-02-23T10:55:41;6.35;;;1.60;;
50803;SDS011;37205;51.434;6.756;2024-02-23T10:58:09;5.32;;;1.40;;
50803;SDS011;37205;51.434;6.756;2024-02-23T11:00:37;5.88;;;1.50;;
50803;SDS011;37205;51.434;6.756;2024-02-23T11:03:03;6.65;;;1.98;;
50803;SDS011;37205;51.434;6.756;2024-02-23T11:05:31;5.97;;;1.48;;
50803;SDS011;37205;51.434;6.756;2024-02-23T11:07:58;6.00;;;1.52;;
50803;SDS011;37205;51.434;6.756;2024-02-23T11:10:23;6.00;;;1.30;;
50803;SDS011;37205;51.434;6.756;2024-02-23T11:12:59;7.68;;;1.67;;
50803;SDS011;37205;51.434;6.756;2024-02-23T11:15:28;7.60;;;2.28;;
50803;SDS011;37205;51.434;6.756;2024-02-23T11:17:57;12.38;;;2.35;;
50803;SDS011;37205;51.434;6.756;2024-02-23T11:20:22;6.45;;;2.38;;
50803;SDS011;37205;51.434;6.756;2024-02-23T11:22:51;7.63;;;2.17;;
50803;SDS011;37205;51.434;6.756;2024-02-23T11:25:18;7.63;;;1.95;;
50803;SDS011;37205;51.434;6.756;2024-02-23T11:27:45;9.05;;;2.03;;
50803;SDS011;37205;51.434;6.756;2024-02-23T11:30:16;8.98;;;1.75;;
50803;SDS011;37205;51.434;6.756;2024-02-23T11:32:43;5.50;;;1.40;;
50803;SDS011;37205;51.434;6.756;2024-02-23T11:35:12;8.27;;;1.48;;
50803;SDS011;37205;51.434;6.756;2024-02-23T11:40:14;7.03;;;2.45;;
50803;SDS011;37205;51.434;6.756;2024-02-23T11:42:41;7.97;;;2.65;;
50803;SDS011;37205;51.434;6.756;2024-02-23T11:45:08;6.97;;;2.28;;
50803;SDS011;37205;51.434;6.756;2024-02-23T11:47:33;6.97;;;2.00;;
50803;SDS011;37205;51.434;6.756;2024-02-23T11:49:59;5.13;;;1.55;;
50803;SDS011;37205;51.434;6.756;2024-02-23T11:52:24;8.32;;;1.92;;
50803;SDS011;37205;51.434;6.756;2024-02-23T11:54:50;4.97;;;2.13;;
50803;SDS011;37205;51.434;6.756;2024-02-23T11:57:16;6.93;;;1.98;;
50803;SDS011;37205;51.434;6.756;2024-02-23T11:59:42;6.70;;;1.77;;
50803;SDS011;37205;51.434;6.756;2024-02-23T12:02:07;6.90;;;1.48;;
50803;SDS011;37205;51.434;6.756;2024-02-23T12:04:33;4.28;;;1.20;;
50803;SDS011;37205;51.434;6.756;2024-02-23T12:06:59;5.40;;;1.42;;
50803;SDS011;37205;51.434;6.756;2024-02-23T12:09:25;6.32;;;1.35;;
50803;SDS011;37205;51.434;6.756;2024-02-23T12:11:51;7.18;;;1.20;;
50803;SDS011;37205;51.434;6.756;2024-02-23T12:14:17;6.25;;;1.45;;
50803;SDS011;37205;51.434;6.756;2024-02-23T12:16:43;4.15;;;1.25;;
50803;SDS011;37205;51.434;6.756;2024-02-23T12:19:09;6.57;;;1.50;;
50803;SDS011;37205;51.434;6.756;2024-02-23T12:21:35;4.75;;;0.98;;
50803;SDS011;37205;51.434;6.756;2024-02-23T12:24:03;6.15;;;1.20;;
50803;SDS011;37205;51.434;6.756;2024-02-23T12:26:30;14.75;;;2.35;;
50803;SDS011;37205;51.434;6.756;2024-02-23T12:28:59;4.13;;;1.10;;
50803;SDS011;37205;51.434;6.756;2024-02-23T12:31:26;4.65;;;1.23;;
50803;SDS011;37205;51.434;6.756;2024-02-23T12:33:52;6.70;;;1.40;;
50803;SDS011;37205;51.434;6.756;2024-02-23T12:36:17;7.03;;;1.38;;
50803;SDS011;37205;51.434;6.756;2024-02-23T12:38:43;3.90;;;0.95;;
50803;SDS011;37205;51.434;6.756;2024-02-23T12:41:09;6.03;;;0.98;;
50803;SDS011;37205;51.434;6.756;2024-02-23T12:43:34;3.80;;;1.00;;
50803;SDS011;37205;51.434;6.756;2024-02-23T12:46:00;5.55;;;1.20;;
50803;SDS011;37205;51.434;6.756;2024-02-23T12:48:28;6.90;;;1.48;;
50803;SDS011;37205;51.434;6.756;2024-02-23T12:50:54;5.32;;;1.10;;
50803;SDS011;37205;51.434;6.756;2024-02-23T12:56:07;5.65;;;1.02;;
50803;SDS011;37205;51.434;6.756;2024-02-23T12:58:34;4.15;;;1.02;;
50803;SDS011;37205;51.434;6.756;2024-02-23T13:01:00;5.05;;;1.38;;
50803;SDS011;37205;51.434;6.756;2024-02-23T13:03:27;6.45;;;1.00;;
50803;SDS011;37205;51.434;6.756;2024-02-23T13:05:54;7.30;;;1.38;;
50803;SDS011;37205;51.434;6.756;2024-02-23T13:08:20;5.70;;;1.10;;
50803;SDS011;37205;51.434;6.756;2024-02-23T13:10:47;5.35;;;1.20;;
50803;SDS011;37205;51.434;6.756;2024-02-23T13:13:13;5.47;;;1.52;;
50803;SDS011;37205;51.434;6.756;2024-02-23T13:15:42;7.15;;;1.67;;
50803;SDS011;37205;51.434;6.756;2024-02-23T13:18:16;7.97;;;2.80;;
50803;SDS011;37205;51.434;6.756;2024-02-23T13:20:45;4.80;;;1.33;;
50803;SDS011;37205;51.434;6.756;2024-02-23T13:23:11;5.15;;;1.00;;
50803;SDS011;37205;51.434;6.756;2024-02-23T13:25:38;5.35;;;1.35;;
50803;SDS011;37205;51.434;6.756;2024-02-23T13:28:04;4.57;;;1.10;;
50803;SDS011;37205;51.434;6.756;2024-02-23T13:30:31;4.05;;;1.10;;
50803;SDS011;37205;51.434;6.756;2024-02-23T13:32:57;5.53;;;1.20;;
50803;SDS011;37205;51.434;6.756;2024-02-23T13:35:23;3.58;;;1.13;;
50803;SDS011;37205;51.434;6.756;2024-02-23T13:37:48;4.20;;;1.15;;
50803;SDS011;37205;51.434;6.756;2024-02-23T13:40:14;3.08;;;0.90;;
50803;SDS011;37205;51.434;6.756;2024-02-23T13:42:40;4.80;;;1.15;;
50803;SDS011;37205;51.434;6.756;2024-02-23T13:45:06;6.22;;;1.17;;
50803;SDS011;37205;51.434;6.756;2024-02-23T13:47:32;9.48;;;1.38;;
50803;SDS011;37205;51.434;6.756;2024-02-23T13:49:58;6.40;;;1.10;;
50803;SDS011;37205;51.434;6.756;2024-02-23T13:52:24;5.55;;;1.48;;
50803;SDS011;37205;51.434;6.756;2024-02-23T13:54:50;6.07;;;1.15;;
50803;SDS011;37205;51.434;6.756;2024-02-23T13:57:16;3.88;;;0.98;;
50803;SDS011;37205;51.434;6.756;2024-02-23T13:59:41;3.58;;;1.00;;
50803;SDS011;37205;51.434;6.756;2024-02-23T14:02:07;5.93;;;1.02;;
50803;SDS011;37205;51.434;6.756;2024-02-23T14:04:32;4.95;;;1.65;;
50803;SDS011;37205;51.434;6.756;2024-02-23T14:06:58;4.28;;;1.02;;
50803;SDS011;37205;51.434;6.756;2024-02-23T14:09:24;4.75;;;1.13;;
50803;SDS011;37205;51.434;6.756;2024-02-23T14:11:49;4.60;;;1.05;;
50803;SDS011;37205;51.434;6.756;2024-02-23T14:14:15;3.85;;;1.02;;
50803;SDS011;37205;51.434;6.756;2024-02-23T14:16:41;4.97;;;1.20;;
50803;SDS011;37205;51.434;6.756;2024-02-23T14:19:07;3.58;;;1.00;;
50803;SDS011;37205;51.434;6.756;2024-02-23T14:21:32;3.65;;;1.00;;
50803;SDS011;37205;51.434;6.756;2024-02-23T14:24:00;2.55;;;0.80;;
50803;SDS011;37205;51.434;6.756;2024-02-23T14:26:26;3.58;;;1.10;;
50803;SDS011;37205;51.434;6.756;2024-02-23T14:28:52;4.25;;;0.95;;
50803;SDS011;37205;51.434;6.756;2024-02-23T14:31:17;4.68;;;1.20;;
50803;SDS011;37205;51.434;6.756;2024-02-23T14:33:43;3.60;;;0.90;;
50803;SDS011;37205;51.434;6.756;2024-02-23T14:36:09;6.18;;;1.00;;
50803;SDS011;37205;51.434;6.756;2024-02-23T14:38:34;6.78;;;1.10;;
50803;SDS011;37205;51.434;6.756;2024-02-23T14:41:00;3.70;;;1.00;;
50803;SDS011;37205;51.434;6.756;2024-02-23T14:43:25;3.00;;;1.58;;